Thunder radar more information blitzortung!


Radar de pluja more information rain snow radar


Visita la nostra xarxa de llocs de meteo:

Template documentation
and downloads

And another site



No particular awareness of the weather is required.    There are no Weather-warnings

Pagina Historial Weather Underground text

Diari Resum Setembre 24, 2017 Unitats:  Tant    Imperial   Mètric
« Previous Dia
SegĂźent Dia »
Diari Setmana Mensual Anual Personalitzada
  Maxima: Minima: Media:
Temperatura: 84.2 °F /  29.0 °C 58.3 °F /  14.6 °C 69.1 °F /  20.6 °C
Punt de rosada: 65.7 °F /  18.7 °C 55.4 °F /  13.0 °C 60.8 °F /  16 °C
Humitat: 93 % 50 % 77 %
Wind Speed: 12.7 mph /  20.4 km/h - 2.9 mph /  4.6 km/h
RĂ fegues de vent: 12.7 mph /  20.4 km/h - -
Vent:- - SSW
Pression baro: 30.2 in /  1022.9 hPa 30 in /  1016.8 hPa -
Precipitacions: 0 in /  0.0 mm    
Historical Graphs
 
 
Dades de taula per Setembre 24, 2017
Temps Temperatura Punt de rosada Pression baro Vent Wind Speed RĂ fegues de vent Humitat Rainfall Rate (Hourly)
00:00 65.5 °F /  18.6 °C 60.4 °F /  15.8 °C 30.2 in /  1021.9 hPa Calm     84 % 0 in /  0.0 mm
00:05 65.3 °F /  18.5 °C 60.1 °F /  15.6 °C 30.2 in /  1020.9 hPa West 2.3 mph /  3.7 km/h 2.3 mph /  3.7 km/h 83 % 0 in /  0.0 mm
00:10 65.1 °F /  18.4 °C 59.7 °F /  15.4 °C 30.2 in /  1020.9 hPa West 1.2 mph /  1.9 km/h   83 % 0 in /  0.0 mm
00:15 65.1 °F /  18.4 °C 60.3 °F /  15.7 °C 30.2 in /  1020.9 hPa Calm     84 % 0 in /  0.0 mm
00:20 65.1 °F /  18.4 °C 60.3 °F /  15.7 °C 30.2 in /  1021.9 hPa Calm     84 % 0 in /  0.0 mm
00:25 64.9 °F /  18.3 °C 60.1 °F /  15.6 °C 30.2 in /  1021.9 hPa Calm     84 % 0 in /  0.0 mm
00:30 64.9 °F /  18.3 °C 60.3 °F /  15.7 °C 30.2 in /  1021.9 hPa Calm     85 % 0 in /  0.0 mm
00:35 64.9 °F /  18.3 °C 60.3 °F /  15.7 °C 30.2 in /  1021.9 hPa Calm     85 % 0 in /  0.0 mm
00:40 64.8 °F /  18.2 °C 60.1 °F /  15.6 °C 30.2 in /  1021.9 hPa Calm     85 % 0 in /  0.0 mm
00:45 64.6 °F /  18.1 °C 60.1 °F /  15.6 °C 30.2 in /  1021.9 hPa Calm     85 % 0 in /  0.0 mm
00:50 64.8 °F /  18.2 °C 60.1 °F /  15.6 °C 30.2 in /  1021.9 hPa West 1.2 mph /  1.9 km/h   85 % 0 in /  0.0 mm
00:55 64.8 °F /  18.2 °C 60.1 °F /  15.6 °C 30.2 in /  1021.9 hPa Calm     85 % 0 in /  0.0 mm
01:00 64.9 °F /  18.3 °C 60.3 °F /  15.7 °C 30.2 in /  1021.9 hPa Calm     85 % 0 in /  0.0 mm
01:05 64.8 °F /  18.2 °C 60.4 °F /  15.8 °C 30.2 in /  1021.9 hPa West 0.9 mph /  1.4 km/h   86 % 0 in /  0.0 mm
01:10 64.8 °F /  18.2 °C 60.4 °F /  15.8 °C 30.2 in /  1021.9 hPa Calm     86 % 0 in /  0.0 mm
01:15 64.8 °F /  18.2 °C 60.4 °F /  15.8 °C 30.2 in /  1021.9 hPa West 1.2 mph /  1.9 km/h 1.4 mph /  2.3 km/h 86 % 0 in /  0.0 mm
01:20 64.8 °F /  18.2 °C 60.4 °F /  15.8 °C 30.2 in /  1020.9 hPa Calm     86 % 0 in /  0.0 mm
01:25 64.8 °F /  18.2 °C 60.4 °F /  15.8 °C 30.2 in /  1020.9 hPa West 2.3 mph /  3.7 km/h 2.3 mph /  3.7 km/h 86 % 0 in /  0.0 mm
01:30 64.8 °F /  18.2 °C 60.4 °F /  15.8 °C 30.2 in /  1020.9 hPa Calm     86 % 0 in /  0.0 mm
01:35 64.8 °F /  18.2 °C 60.4 °F /  15.8 °C 30.2 in /  1021.9 hPa WSW 1.2 mph /  1.9 km/h   86 % 0 in /  0.0 mm
01:40 64.6 °F /  18.1 °C 60.3 °F /  15.7 °C 30.2 in /  1021.9 hPa Calm     86 % 0 in /  0.0 mm
01:45 64.6 °F /  18.1 °C 60.6 °F /  15.9 °C 30.2 in /  1021.9 hPa Calm     87 % 0 in /  0.0 mm
01:55 64.6 °F /  18.1 °C 60.3 °F /  15.7 °C 30.2 in /  1021.9 hPa WSW 1.4 mph /  2.3 km/h 1.4 mph /  2.3 km/h 86 % 0 in /  0.0 mm
02:00 64.6 °F /  18.1 °C 60.3 °F /  15.7 °C 30.2 in /  1021.9 hPa SW 2.3 mph /  3.7 km/h   86 % 0 in /  0.0 mm
02:05 64.4 °F /  18.0 °C 60.4 °F /  15.8 °C 30.2 in /  1021.9 hPa Calm     87 % 0 in /  0.0 mm
02:10 64.4 °F /  18.0 °C 60.4 °F /  15.8 °C 30.2 in /  1021.9 hPa Calm     87 % 0 in /  0.0 mm
02:15 64 °F /  17.8 °C 60.1 °F /  15.6 °C 30.2 in /  1021.9 hPa Calm     87 % 0 in /  0.0 mm
02:20 63.9 °F /  17.7 °C 59.9 °F /  15.5 °C 30.2 in /  1021.9 hPa WSW 1.2 mph /  1.9 km/h 1.2 mph /  1.9 km/h 87 % 0 in /  0.0 mm
02:25 63.9 °F /  17.7 °C 59.9 °F /  15.5 °C 30.2 in /  1021.9 hPa WSW 1.2 mph /  1.9 km/h 1.2 mph /  1.9 km/h 87 % 0 in /  0.0 mm
02:30 63.7 °F /  17.6 °C 59.7 °F /  15.4 °C 30.2 in /  1021.9 hPa West 3.5 mph /  5.6 km/h 3.5 mph /  5.6 km/h 87 % 0 in /  0.0 mm
02:35 63.7 °F /  17.6 °C 59.4 °F /  15.2 °C 30.2 in /  1022.9 hPa WSW 2.3 mph /  3.7 km/h 2.3 mph /  3.7 km/h 86 % 0 in /  0.0 mm
02:40 63.3 °F /  17.4 °C 59.4 °F /  15.2 °C 30.2 in /  1022.9 hPa Calm     87 % 0 in /  0.0 mm
02:45 63.3 °F /  17.4 °C 59.4 °F /  15.2 °C 30.2 in /  1022.9 hPa West 3.5 mph /  5.6 km/h 3.5 mph /  5.6 km/h 87 % 0 in /  0.0 mm
02:50 63.1 °F /  17.3 °C 59.2 °F /  15.1 °C 30.2 in /  1021.9 hPa Calm     87 % 0 in /  0.0 mm
02:55 63.1 °F /  17.3 °C 59.2 °F /  15.1 °C 30.2 in /  1021.9 hPa Calm     87 % 0 in /  0.0 mm
03:00 63 °F /  17.2 °C 59 °F /  15.0 °C 30.2 in /  1021.9 hPa SSW 2 mph /  3.2 km/h   87 % 0 in /  0.0 mm
03:05 62.8 °F /  17.1 °C 58.8 °F /  14.9 °C 30.2 in /  1021.9 hPa SW 1.2 mph /  1.9 km/h   87 % 0 in /  0.0 mm
03:10 62.6 °F /  17.0 °C 58.6 °F /  14.8 °C 30.2 in /  1021.9 hPa Calm     87 % 0 in /  0.0 mm
03:15 62.6 °F /  17.0 °C 58.6 °F /  14.8 °C 30.2 in /  1021.9 hPa Calm     87 % 0 in /  0.0 mm
03:20 62.4 °F /  16.9 °C 58.8 °F /  14.9 °C 30.2 in /  1021.9 hPa Calm     88 % 0 in /  0.0 mm
03:25 62.2 °F /  16.8 °C 58.6 °F /  14.8 °C 30.2 in /  1021.9 hPa Calm     88 % 0 in /  0.0 mm
03:30 62.1 °F /  16.7 °C 58.5 °F /  14.7 °C 30.2 in /  1021.9 hPa Calm     88 % 0 in /  0.0 mm
03:35 62.1 °F /  16.7 °C 58.5 °F /  14.7 °C 30.2 in /  1021.9 hPa SW 2.4 mph /  3.9 km/h 2.4 mph /  3.9 km/h 88 % 0 in /  0.0 mm
03:40 61.9 °F /  16.6 °C 57.9 °F /  14.4 °C 30.2 in /  1021.9 hPa WSW 2.4 mph /  3.9 km/h 2.4 mph /  3.9 km/h 87 % 0 in /  0.0 mm
03:45 61.5 °F /  16.4 °C 57.6 °F /  14.2 °C 30.2 in /  1021.9 hPa WSW 2.4 mph /  3.9 km/h 2.4 mph /  3.9 km/h 87 % 0 in /  0.0 mm
03:50 61.5 °F /  16.4 °C 57.9 °F /  14.4 °C 30.2 in /  1020.9 hPa SW 2 mph /  3.2 km/h 2 mph /  3.2 km/h 88 % 0 in /  0.0 mm
03:55 61.3 °F /  16.3 °C 57.7 °F /  14.3 °C 30.2 in /  1020.9 hPa SW 2.3 mph /  3.7 km/h 2.3 mph /  3.7 km/h 88 % 0 in /  0.0 mm
04:00 61.3 °F /  16.3 °C 57.7 °F /  14.3 °C 30.2 in /  1020.9 hPa SW 1.2 mph /  1.9 km/h 1.4 mph /  2.3 km/h 88 % 0 in /  0.0 mm
04:05 61.3 °F /  16.3 °C 57.7 °F /  14.3 °C 30.2 in /  1020.9 hPa Calm     88 % 0 in /  0.0 mm
04:10 61.7 °F /  16.5 °C 58.1 °F /  14.5 °C 30.2 in /  1020.9 hPa Calm     88 % 0 in /  0.0 mm
04:15 61.2 °F /  16.2 °C 57.6 °F /  14.2 °C 30.2 in /  1020.9 hPa SW 1.2 mph /  1.9 km/h 1.4 mph /  2.3 km/h 88 % 0 in /  0.0 mm
04:20 61 °F /  16.1 °C 57.4 °F /  14.1 °C 30.2 in /  1020.9 hPa Calm     88 % 0 in /  0.0 mm
04:25 61 °F /  16.1 °C 57.7 °F /  14.3 °C 30.2 in /  1020.9 hPa SW 1.2 mph /  1.9 km/h 1.4 mph /  2.3 km/h 89 % 0 in /  0.0 mm
04:30 61 °F /  16.1 °C 57.7 °F /  14.3 °C 30.2 in /  1020.9 hPa SW 1.6 mph /  2.6 km/h 1.6 mph /  2.6 km/h 89 % 0 in /  0.0 mm
04:35 60.8 °F /  16.0 °C 57.6 °F /  14.2 °C 30.2 in /  1020.9 hPa SW 1.6 mph /  2.6 km/h 1.6 mph /  2.6 km/h 89 % 0 in /  0.0 mm
04:40 60.8 °F /  16.0 °C 57.6 °F /  14.2 °C 30.2 in /  1020.9 hPa SW 2.3 mph /  3.7 km/h 2.3 mph /  3.7 km/h 89 % 0 in /  0.0 mm
04:45 61 °F /  16.1 °C 57.7 °F /  14.3 °C 30.2 in /  1020.9 hPa West 2.3 mph /  3.7 km/h 2.3 mph /  3.7 km/h 89 % 0 in /  0.0 mm
04:50 61.2 °F /  16.2 °C 57.9 °F /  14.4 °C 30.2 in /  1020.9 hPa WSW 2.3 mph /  3.7 km/h 2.3 mph /  3.7 km/h 89 % 0 in /  0.0 mm
04:55 61.2 °F /  16.2 °C 57.9 °F /  14.4 °C 30.2 in /  1020.9 hPa Calm     89 % 0 in /  0.0 mm
05:00 61.2 °F /  16.2 °C 58.3 °F /  14.6 °C 30.2 in /  1020.9 hPa Calm     90 % 0 in /  0.0 mm
05:05 61.3 °F /  16.3 °C 58.5 °F /  14.7 °C 30.2 in /  1020.9 hPa Calm     90 % 0 in /  0.0 mm
05:10 61.3 °F /  16.3 °C 58.5 °F /  14.7 °C 30.2 in /  1020.9 hPa Calm     90 % 0 in /  0.0 mm
05:15 61.2 °F /  16.2 °C 58.3 °F /  14.6 °C 30.2 in /  1020.9 hPa Calm     90 % 0 in /  0.0 mm
05:20 61.2 °F /  16.2 °C 58.3 °F /  14.6 °C 30.2 in /  1020.9 hPa WSW 0.9 mph /  1.4 km/h   90 % 0 in /  0.0 mm
05:21 61 °F /  16.1 °C 57.9 °F /  14.4 °C 30.2 in /  1020.9 hPa SW 2 mph /  3.2 km/h 2 mph /  3.2 km/h 90 % 0 in /  0.0 mm
05:23 61 °F /  16.1 °C 57.9 °F /  14.4 °C 30.2 in /  1020.9 hPa SW 2.3 mph /  3.7 km/h 2.3 mph /  3.7 km/h 90 % 0 in /  0.0 mm
05:25 60.8 °F /  16.0 °C 57.6 °F /  14.2 °C 30.2 in /  1020.9 hPa SW 1.4 mph /  2.3 km/h 1.4 mph /  2.3 km/h 89 % 0 in /  0.0 mm
05:30 60.8 °F /  16.0 °C 57.6 °F /  14.2 °C 30.2 in /  1020.9 hPa SW 1.4 mph /  2.3 km/h 1.4 mph /  2.3 km/h 89 % 0 in /  0.0 mm
05:35 60.8 °F /  16.0 °C 57.7 °F /  14.3 °C 30.2 in /  1020.9 hPa Calm     90 % 0 in /  0.0 mm
05:40 60.8 °F /  16.0 °C 57.7 °F /  14.3 °C 30.2 in /  1020.9 hPa Calm     90 % 0 in /  0.0 mm
05:45 60.6 °F /  15.9 °C 57.4 °F /  14.1 °C 30.2 in /  1020.9 hPa Calm     89 % 0 in /  0.0 mm
05:50 60.4 °F /  15.8 °C 57.2 °F /  14.0 °C 30.1 in /  1019.9 hPa Calm     89 % 0 in /  0.0 mm
05:55 60.1 °F /  15.6 °C 56.8 °F /  13.8 °C 30.1 in /  1019.9 hPa SW 3.5 mph /  5.6 km/h 3.5 mph /  5.6 km/h 89 % 0 in /  0.0 mm
06:00 59.9 °F /  15.5 °C 56.7 °F /  13.7 °C 30.1 in /  1019.9 hPa SW 3.5 mph /  5.6 km/h 3.5 mph /  5.6 km/h 89 % 0 in /  0.0 mm
06:05 59.9 °F /  15.5 °C 56.7 °F /  13.7 °C 30.2 in /  1020.9 hPa SW 3.5 mph /  5.6 km/h 3.5 mph /  5.6 km/h 89 % 0 in /  0.0 mm
06:10 59.5 °F /  15.3 °C 56.3 °F /  13.5 °C 30.2 in /  1020.9 hPa SW 3.8 mph /  6.1 km/h 3.8 mph /  6.1 km/h 89 % 0 in /  0.0 mm
06:15 59.5 °F /  15.3 °C 56.3 °F /  13.5 °C 30.2 in /  1020.9 hPa SW 2.3 mph /  3.7 km/h 2.3 mph /  3.7 km/h 89 % 0 in /  0.0 mm
06:20 59.4 °F /  15.2 °C 56.1 °F /  13.4 °C 30.2 in /  1020.9 hPa SW 2.6 mph /  4.2 km/h 2.6 mph /  4.2 km/h 89 % 0 in /  0.0 mm
06:25 59.2 °F /  15.1 °C 55.9 °F /  13.3 °C 30.2 in /  1020.9 hPa WSW 3.5 mph /  5.6 km/h 3.5 mph /  5.6 km/h 89 % 0 in /  0.0 mm
06:30 59 °F /  15.0 °C 55.8 °F /  13.2 °C 30.2 in /  1020.9 hPa SW 1.2 mph /  1.9 km/h 1.2 mph /  1.9 km/h 89 % 0 in /  0.0 mm
06:35 59 °F /  15.0 °C 56.1 °F /  13.4 °C 30.2 in /  1020.9 hPa SW 1.4 mph /  2.3 km/h 1.4 mph /  2.3 km/h 90 % 0 in /  0.0 mm
06:40 59 °F /  15.0 °C 56.1 °F /  13.4 °C 30.2 in /  1020.9 hPa SW 2.6 mph /  4.2 km/h 2.6 mph /  4.2 km/h 90 % 0 in /  0.0 mm
06:45 59 °F /  15.0 °C 55.8 °F /  13.2 °C 30.2 in /  1020.9 hPa SW 2.6 mph /  4.2 km/h 2.6 mph /  4.2 km/h 89 % 0 in /  0.0 mm
06:50 59 °F /  15.0 °C 56.1 °F /  13.4 °C 30.2 in /  1020.9 hPa SW 2.3 mph /  3.7 km/h 2.3 mph /  3.7 km/h 90 % 0 in /  0.0 mm
06:55 59 °F /  15.0 °C 56.1 °F /  13.4 °C 30.2 in /  1020.9 hPa SW 2.4 mph /  3.9 km/h 2.4 mph /  3.9 km/h 90 % 0 in /  0.0 mm
07:00 58.8 °F /  14.9 °C 55.9 °F /  13.3 °C 30.2 in /  1020.9 hPa SW 2.3 mph /  3.7 km/h 2.3 mph /  3.7 km/h 90 % 0 in /  0.0 mm
07:05 58.8 °F /  14.9 °C 55.9 °F /  13.3 °C 30.2 in /  1020.9 hPa SW 2.3 mph /  3.7 km/h 2.3 mph /  3.7 km/h 90 % 0 in /  0.0 mm
07:10 58.8 °F /  14.9 °C 55.9 °F /  13.3 °C 30.2 in /  1020.9 hPa Calm     90 % 0 in /  0.0 mm
07:15 58.8 °F /  14.9 °C 56.1 °F /  13.4 °C 30.2 in /  1020.9 hPa Calm     91 % 0 in /  0.0 mm
07:20 58.8 °F /  14.9 °C 56.1 °F /  13.4 °C 30.2 in /  1020.9 hPa WSW 2.3 mph /  3.7 km/h 2.3 mph /  3.7 km/h 91 % 0 in /  0.0 mm
07:25 58.5 °F /  14.7 °C 55.8 °F /  13.2 °C 30.2 in /  1020.9 hPa SW 2.3 mph /  3.7 km/h 2.3 mph /  3.7 km/h 91 % 0 in /  0.0 mm
07:30 58.3 °F /  14.6 °C 55.4 °F /  13.0 °C 30.2 in /  1020.9 hPa SW 2.6 mph /  4.2 km/h 2.6 mph /  4.2 km/h 90 % 0 in /  0.0 mm
07:35 58.5 °F /  14.7 °C 55.6 °F /  13.1 °C 30.2 in /  1020.9 hPa SW 3.5 mph /  5.6 km/h 3.5 mph /  5.6 km/h 90 % 0 in /  0.0 mm
07:40 58.5 °F /  14.7 °C 55.6 °F /  13.1 °C 30.2 in /  1020.9 hPa WSW 4.6 mph /  7.4 km/h 4.6 mph /  7.4 km/h 90 % 0 in /  0.0 mm
07:45 58.3 °F /  14.6 °C 55.4 °F /  13.0 °C 30.2 in /  1020.9 hPa SW 3.5 mph /  5.6 km/h 3.5 mph /  5.6 km/h 90 % 0 in /  0.0 mm
07:50 58.3 °F /  14.6 °C 55.4 °F /  13.0 °C 30.2 in /  1021.9 hPa SW 3.5 mph /  5.6 km/h 3.5 mph /  5.6 km/h 90 % 0 in /  0.0 mm
07:55 58.3 °F /  14.6 °C 55.4 °F /  13.0 °C 30.2 in /  1021.9 hPa SW 2.3 mph /  3.7 km/h 2.3 mph /  3.7 km/h 90 % 0 in /  0.0 mm
08:00 58.3 °F /  14.6 °C 55.8 °F /  13.2 °C 30.2 in /  1021.9 hPa WSW 2.3 mph /  3.7 km/h 2.3 mph /  3.7 km/h 91 % 0 in /  0.0 mm
08:05 58.6 °F /  14.8 °C 56.3 °F /  13.5 °C 30.2 in /  1020.9 hPa WSW 1.2 mph /  1.9 km/h 1.2 mph /  1.9 km/h 92 % 0 in /  0.0 mm
08:10 59 °F /  15.0 °C 56.7 °F /  13.7 °C 30.2 in /  1020.9 hPa West 2.6 mph /  4.2 km/h   92 % 0 in /  0.0 mm
08:15 59.5 °F /  15.3 °C 57.2 °F /  14.0 °C 30.2 in /  1020.9 hPa WSW 2.4 mph /  3.9 km/h 2.4 mph /  3.9 km/h 92 % 0 in /  0.0 mm
08:20 59.4 °F /  15.2 °C 56.7 °F /  13.7 °C 30.2 in /  1021.9 hPa SW 2.3 mph /  3.7 km/h 2.3 mph /  3.7 km/h 91 % 0 in /  0.0 mm
08:25 59.2 °F /  15.1 °C 56.7 °F /  13.7 °C 30.2 in /  1021.9 hPa SW 2.6 mph /  4.2 km/h 2.6 mph /  4.2 km/h 91 % 0 in /  0.0 mm
08:30 59.2 °F /  15.1 °C 56.7 °F /  13.7 °C 30.2 in /  1021.9 hPa SW 2.6 mph /  4.2 km/h 2.6 mph /  4.2 km/h 91 % 0 in /  0.0 mm
08:35 59.4 °F /  15.2 °C 56.7 °F /  13.7 °C 30.2 in /  1021.9 hPa SW 2.3 mph /  3.7 km/h 2.3 mph /  3.7 km/h 91 % 0 in /  0.0 mm
08:40 59.5 °F /  15.3 °C 57.2 °F /  14.0 °C 30.2 in /  1021.9 hPa SW 2.3 mph /  3.7 km/h 2.6 mph /  4.2 km/h 92 % 0 in /  0.0 mm
08:45 59.9 °F /  15.5 °C 57.4 °F /  14.1 °C 30.2 in /  1021.9 hPa SW 3.5 mph /  5.6 km/h 3.5 mph /  5.6 km/h 91 % 0 in /  0.0 mm
08:50 60.1 °F /  15.6 °C 57.7 °F /  14.3 °C 30.2 in /  1021.9 hPa SW 2.3 mph /  3.7 km/h 2.3 mph /  3.7 km/h 92 % 0 in /  0.0 mm
08:55 60.3 °F /  15.7 °C 57.9 °F /  14.4 °C 30.2 in /  1021.9 hPa SW 2.3 mph /  3.7 km/h 2.3 mph /  3.7 km/h 92 % 0 in /  0.0 mm
09:00 60.8 °F /  16.0 °C 58.5 °F /  14.7 °C 30.2 in /  1021.9 hPa Calm     92 % 0 in /  0.0 mm
09:05 61.5 °F /  16.4 °C 59.5 °F /  15.3 °C 30.2 in /  1020.9 hPa NW 1.2 mph /  1.9 km/h   93 % 0 in /  0.0 mm
09:10 62.6 °F /  17.0 °C 60.4 °F /  15.8 °C 30.2 in /  1020.9 hPa NNW 1.2 mph /  1.9 km/h 1.2 mph /  1.9 km/h 93 % 0 in /  0.0 mm
09:15 62.8 °F /  17.1 °C 60.4 °F /  15.8 °C 30.2 in /  1020.9 hPa WNW 1.4 mph /  2.3 km/h 1.4 mph /  2.3 km/h 92 % 0 in /  0.0 mm
09:20 63.1 °F /  17.3 °C 60.4 °F /  15.8 °C 30.2 in /  1021.9 hPa Calm     91 % 0 in /  0.0 mm
09:25 64.2 °F /  17.9 °C 61.9 °F /  16.6 °C 30.2 in /  1021.9 hPa Calm     92 % 0 in /  0.0 mm
09:30 64.6 °F /  18.1 °C 61.5 °F /  16.4 °C 30.2 in /  1021.9 hPa WNW 1.4 mph /  2.3 km/h 1.4 mph /  2.3 km/h 90 % 0 in /  0.0 mm
09:35 65.5 °F /  18.6 °C 62.4 °F /  16.9 °C 30.2 in /  1021.9 hPa East 1.4 mph /  2.3 km/h   90 % 0 in /  0.0 mm
09:40 65.7 °F /  18.7 °C 62.2 °F /  16.8 °C 30.2 in /  1021.9 hPa South 1.6 mph /  2.6 km/h 1.6 mph /  2.6 km/h 89 % 0 in /  0.0 mm
09:45 65.8 °F /  18.8 °C 62.2 °F /  16.8 °C 30.2 in /  1021.9 hPa Calm     88 % 0 in /  0.0 mm
09:50 67.3 °F /  19.6 °C 63.3 °F /  17.4 °C 30.2 in /  1021.9 hPa NE 1.2 mph /  1.9 km/h 1.2 mph /  1.9 km/h 87 % 0 in /  0.0 mm
09:55 68 °F /  20.0 °C 63.3 °F /  17.4 °C 30.2 in /  1021.9 hPa ENE 2.4 mph /  3.9 km/h   85 % 0 in /  0.0 mm
10:00 68.4 °F /  20.2 °C 63 °F /  17.2 °C 30.2 in /  1021.9 hPa NE 2.3 mph /  3.7 km/h 2.3 mph /  3.7 km/h 83 % 0 in /  0.0 mm
10:05 68 °F /  20.0 °C 62.2 °F /  16.8 °C 30.2 in /  1021.9 hPa NE 2.3 mph /  3.7 km/h 2.3 mph /  3.7 km/h 82 % 0 in /  0.0 mm
10:10 67.6 °F /  19.8 °C 61.9 °F /  16.6 °C 30.2 in /  1021.9 hPa NNE 3.5 mph /  5.6 km/h 3.5 mph /  5.6 km/h 82 % 0 in /  0.0 mm
10:15 67.6 °F /  19.8 °C 61.9 °F /  16.6 °C 30.2 in /  1021.9 hPa NNW 2.3 mph /  3.7 km/h 2.3 mph /  3.7 km/h 82 % 0 in /  0.0 mm
10:20 67.8 °F /  19.9 °C 62.1 °F /  16.7 °C 30.2 in /  1021.9 hPa NNE 4 mph /  6.4 km/h 4 mph /  6.4 km/h 82 % 0 in /  0.0 mm
10:25 68.4 °F /  20.2 °C 62.2 °F /  16.8 °C 30.2 in /  1021.9 hPa NNE 3.5 mph /  5.6 km/h 3.5 mph /  5.6 km/h 81 % 0 in /  0.0 mm
10:30 68.9 °F /  20.5 °C 62.4 °F /  16.9 °C 30.2 in /  1021.9 hPa ENE 3.5 mph /  5.6 km/h 3.5 mph /  5.6 km/h 80 % 0 in /  0.0 mm
10:35 68.9 °F /  20.5 °C 62.1 °F /  16.7 °C 30.2 in /  1021.9 hPa NE 2.3 mph /  3.7 km/h 2.3 mph /  3.7 km/h 79 % 0 in /  0.0 mm
10:40 69.3 °F /  20.7 °C 62.4 °F /  16.9 °C 30.2 in /  1021.9 hPa ENE 5.8 mph /  9.3 km/h 5.8 mph /  9.3 km/h 79 % 0 in /  0.0 mm
10:45 69.3 °F /  20.7 °C 62.1 °F /  16.7 °C 30.2 in /  1021.9 hPa East 3.5 mph /  5.6 km/h 3.5 mph /  5.6 km/h 78 % 0 in /  0.0 mm
10:50 70.2 °F /  21.2 °C 62.6 °F /  17.0 °C 30.2 in /  1021.9 hPa ENE 1.6 mph /  2.6 km/h 1.6 mph /  2.6 km/h 77 % 0 in /  0.0 mm
10:55 70.7 °F /  21.5 °C 62.8 °F /  17.1 °C 30.2 in /  1021.9 hPa NE 2.3 mph /  3.7 km/h 2.3 mph /  3.7 km/h 76 % 0 in /  0.0 mm
11:00 71.4 °F /  21.9 °C 63.5 °F /  17.5 °C 30.2 in /  1021.9 hPa ENE 2.4 mph /  3.9 km/h 2.4 mph /  3.9 km/h 76 % 0 in /  0.0 mm
11:05 70.7 °F /  21.5 °C 62.1 °F /  16.7 °C 30.2 in /  1021.9 hPa ENE 4.6 mph /  7.4 km/h 4.6 mph /  7.4 km/h 74 % 0 in /  0.0 mm
11:10 71.1 °F /  21.7 °C 62.8 °F /  17.1 °C 30.2 in /  1021.9 hPa WNW 2.3 mph /  3.7 km/h 2.3 mph /  3.7 km/h 75 % 0 in /  0.0 mm
11:15 71.6 °F /  22.0 °C 63 °F /  17.2 °C 30.2 in /  1021.9 hPa WSW 2.3 mph /  3.7 km/h 2.3 mph /  3.7 km/h 74 % 0 in /  0.0 mm
11:20 71.8 °F /  22.1 °C 62.2 °F /  16.8 °C 30.2 in /  1021.9 hPa ESE 4.6 mph /  7.4 km/h 4.6 mph /  7.4 km/h 72 % 0 in /  0.0 mm
11:25 71.2 °F /  21.8 °C 61.7 °F /  16.5 °C 30.2 in /  1021.9 hPa SSE 3.5 mph /  5.6 km/h 3.5 mph /  5.6 km/h 72 % 0 in /  0.0 mm
11:30 71.6 °F /  22.0 °C 61.3 °F /  16.3 °C 30.2 in /  1021.9 hPa SE 3.5 mph /  5.6 km/h 3.5 mph /  5.6 km/h 70 % 0 in /  0.0 mm
11:35 72.3 °F /  22.4 °C 62.1 °F /  16.7 °C 30.2 in /  1021.9 hPa ESE 4 mph /  6.4 km/h 4 mph /  6.4 km/h 70 % 0 in /  0.0 mm
11:40 72.9 °F /  22.7 °C 63 °F /  17.2 °C 30.2 in /  1021.9 hPa South 3.5 mph /  5.6 km/h 3.5 mph /  5.6 km/h 71 % 0 in /  0.0 mm
11:45 73.6 °F /  23.1 °C 62.8 °F /  17.1 °C 30.2 in /  1021.9 hPa ESE 2.6 mph /  4.2 km/h 2.6 mph /  4.2 km/h 69 % 0 in /  0.0 mm
11:50 73.2 °F /  22.9 °C 63.1 °F /  17.3 °C 30.2 in /  1021.9 hPa SW 3.5 mph /  5.6 km/h 3.5 mph /  5.6 km/h 71 % 0 in /  0.0 mm
11:55 73.6 °F /  23.1 °C 62.8 °F /  17.1 °C 30.2 in /  1021.9 hPa NW 2.3 mph /  3.7 km/h   69 % 0 in /  0.0 mm
12:00 74.5 °F /  23.6 °C 63.7 °F /  17.6 °C 30.2 in /  1021.9 hPa East 2.4 mph /  3.9 km/h 2.4 mph /  3.9 km/h 69 % 0 in /  0.0 mm
12:05 74.3 °F /  23.5 °C 63.1 °F /  17.3 °C 30.2 in /  1021.9 hPa ENE 2.6 mph /  4.2 km/h 2.6 mph /  4.2 km/h 68 % 0 in /  0.0 mm
12:10 73.9 °F /  23.3 °C 62.8 °F /  17.1 °C 30.2 in /  1021.9 hPa East 3.5 mph /  5.6 km/h 3.5 mph /  5.6 km/h 68 % 0 in /  0.0 mm
12:15 73.9 °F /  23.3 °C 62.2 °F /  16.8 °C 30.2 in /  1021.9 hPa NE 4.9 mph /  7.9 km/h 4.9 mph /  7.9 km/h 67 % 0 in /  0.0 mm
12:20 73.9 °F /  23.3 °C 62.2 °F /  16.8 °C 30.2 in /  1021.9 hPa ENE 3.5 mph /  5.6 km/h 3.5 mph /  5.6 km/h 67 % 0 in /  0.0 mm
12:25 74.1 °F /  23.4 °C 62.1 °F /  16.7 °C 30.2 in /  1021.9 hPa ENE 3.5 mph /  5.6 km/h 3.5 mph /  5.6 km/h 66 % 0 in /  0.0 mm
12:30 75.2 °F /  24.0 °C 62.6 °F /  17.0 °C 30.2 in /  1021.9 hPa ENE 4.5 mph /  7.2 km/h 4.5 mph /  7.2 km/h 65 % 0 in /  0.0 mm
12:40 75 °F /  23.9 °C 62.4 °F /  16.9 °C 30.2 in /  1020.9 hPa NNE 4.6 mph /  7.4 km/h 4.6 mph /  7.4 km/h 65 % 0 in /  0.0 mm
12:45 75.2 °F /  24.0 °C 62.2 °F /  16.8 °C 30.2 in /  1020.9 hPa NNE 3.5 mph /  5.6 km/h 3.6 mph /  5.8 km/h 64 % 0 in /  0.0 mm
12:50 75.4 °F /  24.1 °C 61.9 °F /  16.6 °C 30.2 in /  1020.9 hPa East 5.8 mph /  9.3 km/h 5.8 mph /  9.3 km/h 63 % 0 in /  0.0 mm
12:55 75.9 °F /  24.4 °C 62.4 °F /  16.9 °C 30.2 in /  1020.9 hPa NE 2.3 mph /  3.7 km/h 2.4 mph /  3.9 km/h 63 % 0 in /  0.0 mm
13:00 76.3 °F /  24.6 °C 62.8 °F /  17.1 °C 30.2 in /  1020.9 hPa SW 3.3 mph /  5.3 km/h 3.3 mph /  5.3 km/h 63 % 0 in /  0.0 mm
13:05 77.2 °F /  25.1 °C 62.2 °F /  16.8 °C 30.1 in /  1019.9 hPa NE 3.5 mph /  5.6 km/h 3.5 mph /  5.6 km/h 60 % 0 in /  0.0 mm
13:10 78.1 °F /  25.6 °C 63.5 °F /  17.5 °C 30.1 in /  1019.9 hPa SW 5.8 mph /  9.3 km/h 5.8 mph /  9.3 km/h 61 % 0 in /  0.0 mm
13:15 79.5 °F /  26.4 °C 64.4 °F /  18.0 °C 30.1 in /  1019.9 hPa SW 3.5 mph /  5.6 km/h 3.5 mph /  5.6 km/h 60 % 0 in /  0.0 mm
13:20 79.5 °F /  26.4 °C 63.9 °F /  17.7 °C 30.1 in /  1019.9 hPa SW 3.3 mph /  5.3 km/h 3.3 mph /  5.3 km/h 59 % 0 in /  0.0 mm
13:25 79.9 °F /  26.6 °C 64.8 °F /  18.2 °C 30.1 in /  1019.9 hPa WSW 5.8 mph /  9.3 km/h 5.8 mph /  9.3 km/h 60 % 0 in /  0.0 mm
13:30 80.8 °F /  27.1 °C 64.6 °F /  18.1 °C 30.1 in /  1019.9 hPa WNW 2.3 mph /  3.7 km/h 2.3 mph /  3.7 km/h 58 % 0 in /  0.0 mm
13:35 80.4 °F /  26.9 °C 64.2 °F /  17.9 °C 30.1 in /  1019.9 hPa ENE 2.3 mph /  3.7 km/h 2.3 mph /  3.7 km/h 58 % 0 in /  0.0 mm
13:40 80.6 °F /  27.0 °C 64 °F /  17.8 °C 30.1 in /  1019.9 hPa WSW 4.6 mph /  7.4 km/h 4.6 mph /  7.4 km/h 57 % 0 in /  0.0 mm
13:45 81.3 °F /  27.4 °C 64 °F /  17.8 °C 30.1 in /  1019.9 hPa SSW 4.6 mph /  7.4 km/h 4.6 mph /  7.4 km/h 56 % 0 in /  0.0 mm
13:50 82.4 °F /  28.0 °C 64.6 °F /  18.1 °C 30.1 in /  1019.9 hPa South 2.3 mph /  3.7 km/h 2.3 mph /  3.7 km/h 55 % 0 in /  0.0 mm
13:55 82.6 °F /  28.1 °C 64.2 °F /  17.9 °C 30.1 in /  1019.9 hPa WSW 3.5 mph /  5.6 km/h 3.5 mph /  5.6 km/h 54 % 0 in /  0.0 mm
14:00 81.7 °F /  27.6 °C 63 °F /  17.2 °C 30.1 in /  1019.9 hPa South 3.5 mph /  5.6 km/h 3.5 mph /  5.6 km/h 53 % 0 in /  0.0 mm
14:05 81.7 °F /  27.6 °C 62.2 °F /  16.8 °C 30.1 in /  1019.9 hPa SSE 4.6 mph /  7.4 km/h 4.6 mph /  7.4 km/h 52 % 0 in /  0.0 mm
14:10 82.4 °F /  28.0 °C 64 °F /  17.8 °C 30.1 in /  1019.9 hPa SW 4.6 mph /  7.4 km/h 4.6 mph /  7.4 km/h 54 % 0 in /  0.0 mm
14:15 83.5 °F /  28.6 °C 65.7 °F /  18.7 °C 30.1 in /  1019.9 hPa SW 4.3 mph /  6.9 km/h 4.3 mph /  6.9 km/h 55 % 0 in /  0.0 mm
14:20 83.7 °F /  28.7 °C 64.8 °F /  18.2 °C 30.1 in /  1019.9 hPa SW 6.9 mph /  11.1 km/h 6.9 mph /  11.1 km/h 53 % 0 in /  0.0 mm
14:25 84.2 °F /  29.0 °C 64.8 °F /  18.2 °C 30.1 in /  1019.9 hPa SW 2.3 mph /  3.7 km/h 2.3 mph /  3.7 km/h 52 % 0 in /  0.0 mm
14:30 84.2 °F /  29.0 °C 64.8 °F /  18.2 °C 30.1 in /  1019.9 hPa South 2.2 mph /  3.5 km/h 2.2 mph /  3.5 km/h 52 % 0 in /  0.0 mm
14:31 84.2 °F /  29.0 °C 64.8 °F /  18.2 °C 30.1 in /  1019.9 hPa SSW 2.6 mph /  4.2 km/h 2.6 mph /  4.2 km/h 52 % 0 in /  0.0 mm
14:36 84.2 °F /  29.0 °C 63.5 °F /  17.5 °C 30.1 in /  1018.8 hPa ENE 4.6 mph /  7.4 km/h 4.6 mph /  7.4 km/h 50 % 0 in /  0.0 mm
14:41 82.9 °F /  28.3 °C 63.5 °F /  17.5 °C 30.1 in /  1018.8 hPa East 4.6 mph /  7.4 km/h 4.6 mph /  7.4 km/h 52 % 0 in /  0.0 mm
14:46 81.9 °F /  27.7 °C 63.1 °F /  17.3 °C 30.1 in /  1018.8 hPa ESE 4.6 mph /  7.4 km/h 4.6 mph /  7.4 km/h 53 % 0 in /  0.0 mm
14:51 81.1 °F /  27.3 °C 62.4 °F /  16.9 °C 30.1 in /  1019.9 hPa ENE 6.4 mph /  10.3 km/h 6.4 mph /  10.3 km/h 53 % 0 in /  0.0 mm
14:56 81.1 °F /  27.3 °C 63 °F /  17.2 °C 30.1 in /  1019.9 hPa ESE 8.1 mph /  13.0 km/h 8.1 mph /  13.0 km/h 54 % 0 in /  0.0 mm
15:01 80.2 °F /  26.8 °C 62.6 °F /  17.0 °C 30.1 in /  1019.9 hPa SE 8.1 mph /  13.0 km/h 8.1 mph /  13.0 km/h 55 % 0 in /  0.0 mm
15:06 80.2 °F /  26.8 °C 62.6 °F /  17.0 °C 30.1 in /  1018.8 hPa ESE 6.9 mph /  11.1 km/h 6.9 mph /  11.1 km/h 55 % 0 in /  0.0 mm
15:11 80.1 °F /  26.7 °C 63 °F /  17.2 °C 30.1 in /  1018.8 hPa SSE 8.1 mph /  13.0 km/h 8.1 mph /  13.0 km/h 56 % 0 in /  0.0 mm
15:16 80.4 °F /  26.9 °C 63.3 °F /  17.4 °C 30.1 in /  1018.8 hPa ESE 6.2 mph /  10.0 km/h 6.2 mph /  10.0 km/h 56 % 0 in /  0.0 mm
15:21 79.7 °F /  26.5 °C 62.6 °F /  17.0 °C 30.1 in /  1019.9 hPa East 8.1 mph /  13.0 km/h 8.1 mph /  13.0 km/h 56 % 0 in /  0.0 mm
15:26 79.7 °F /  26.5 °C 62.6 °F /  17.0 °C 30.1 in /  1019.9 hPa SE 9.2 mph /  14.8 km/h 9.2 mph /  14.8 km/h 56 % 0 in /  0.0 mm
15:36 79.7 °F /  26.5 °C 63.1 °F /  17.3 °C 30.1 in /  1019.9 hPa SE 8.1 mph /  13.0 km/h 8.1 mph /  13.0 km/h 57 % 0 in /  0.0 mm
15:41 80.1 °F /  26.7 °C 63.5 °F /  17.5 °C 30.1 in /  1019.9 hPa East 9.2 mph /  14.8 km/h 9.2 mph /  14.8 km/h 57 % 0 in /  0.0 mm
15:46 80.2 °F /  26.8 °C 63.7 °F /  17.6 °C 30.1 in /  1019.9 hPa ESE 6.9 mph /  11.1 km/h 6.9 mph /  11.1 km/h 57 % 0 in /  0.0 mm
15:51 80.2 °F /  26.8 °C 63.7 °F /  17.6 °C 30.1 in /  1019.9 hPa ENE 3.8 mph /  6.1 km/h 4 mph /  6.4 km/h 57 % 0 in /  0.0 mm
15:56 80.8 °F /  27.1 °C 64 °F /  17.8 °C 30.1 in /  1019.9 hPa ESE 4.3 mph /  6.9 km/h 4.3 mph /  6.9 km/h 57 % 0 in /  0.0 mm
16:01 80.4 °F /  26.9 °C 63.9 °F /  17.7 °C 30.1 in /  1019.9 hPa ENE 6.2 mph /  10.0 km/h 6.2 mph /  10.0 km/h 57 % 0 in /  0.0 mm
16:06 79.9 °F /  26.6 °C 63.3 °F /  17.4 °C 30.1 in /  1019.9 hPa ENE 6.9 mph /  11.1 km/h 6.9 mph /  11.1 km/h 57 % 0 in /  0.0 mm
16:11 80.2 °F /  26.8 °C 63.7 °F /  17.6 °C 30.1 in /  1019.9 hPa ESE 5.8 mph /  9.3 km/h 5.8 mph /  9.3 km/h 57 % 0 in /  0.0 mm
16:16 79.9 °F /  26.6 °C 63.3 °F /  17.4 °C 30.1 in /  1019.9 hPa East 5.8 mph /  9.3 km/h 5.8 mph /  9.3 km/h 57 % 0 in /  0.0 mm
16:21 80.4 °F /  26.9 °C 63.9 °F /  17.7 °C 30.1 in /  1019.9 hPa SSW 2.9 mph /  4.7 km/h 2.9 mph /  4.7 km/h 57 % 0 in /  0.0 mm
16:26 80.6 °F /  27.0 °C 63.5 °F /  17.5 °C 30.1 in /  1019.9 hPa ESE 7.6 mph /  12.2 km/h 7.6 mph /  12.2 km/h 56 % 0 in /  0.0 mm
16:31 81.5 °F /  27.5 °C 64.2 °F /  17.9 °C 30.1 in /  1019.9 hPa South 6.9 mph /  11.1 km/h 6.9 mph /  11.1 km/h 56 % 0 in /  0.0 mm
16:36 82.4 °F /  28.0 °C 64.6 °F /  18.1 °C 30.1 in /  1019.9 hPa SSW 7.8 mph /  12.6 km/h 7.8 mph /  12.6 km/h 55 % 0 in /  0.0 mm
16:41 82 °F /  27.8 °C 64.2 °F /  17.9 °C 30.1 in /  1019.9 hPa SW 6.2 mph /  10.0 km/h 6.2 mph /  10.0 km/h 55 % 0 in /  0.0 mm
16:46 82.6 °F /  28.1 °C 64.8 °F /  18.2 °C 30.1 in /  1019.9 hPa SW 7.1 mph /  11.4 km/h 7.1 mph /  11.4 km/h 55 % 0 in /  0.0 mm
16:51 82.2 °F /  27.9 °C 63.9 °F /  17.7 °C 30.1 in /  1018.8 hPa WSW 3.5 mph /  5.6 km/h 3.5 mph /  5.6 km/h 54 % 0 in /  0.0 mm
16:56 82.4 °F /  28.0 °C 64 °F /  17.8 °C 30.1 in /  1018.8 hPa WNW 4.6 mph /  7.4 km/h 4.7 mph /  7.6 km/h 54 % 0 in /  0.0 mm
17:01 81.9 °F /  27.7 °C 63.7 °F /  17.6 °C 30.1 in /  1018.8 hPa SSW 8.1 mph /  13.0 km/h 8.1 mph /  13.0 km/h 54 % 0 in /  0.0 mm
17:06 81.7 °F /  27.6 °C 63.3 °F /  17.4 °C 30.1 in /  1019.9 hPa SW 8.1 mph /  13.0 km/h 8.1 mph /  13.0 km/h 54 % 0 in /  0.0 mm
17:11 80.8 °F /  27.1 °C 62.6 °F /  17.0 °C 30.1 in /  1019.9 hPa SW 8.1 mph /  13.0 km/h 8.1 mph /  13.0 km/h 54 % 0 in /  0.0 mm
17:16 80.4 °F /  26.9 °C 62.8 °F /  17.1 °C 30.1 in /  1019.9 hPa West 9.2 mph /  14.8 km/h 9.2 mph /  14.8 km/h 55 % 0 in /  0.0 mm
17:21 79.7 °F /  26.5 °C 62.6 °F /  17.0 °C 30.1 in /  1019.9 hPa SSW 12.7 mph /  20.4 km/h 12.7 mph /  20.4 km/h 56 % 0 in /  0.0 mm
17:26 79.9 °F /  26.6 °C 62.8 °F /  17.1 °C 30.1 in /  1019.9 hPa SW 6.9 mph /  11.1 km/h 6.9 mph /  11.1 km/h 56 % 0 in /  0.0 mm
17:31 79.7 °F /  26.5 °C 62.6 °F /  17.0 °C 30.1 in /  1019.9 hPa SW 8.1 mph /  13.0 km/h 8.1 mph /  13.0 km/h 56 % 0 in /  0.0 mm
17:36 79.3 °F /  26.3 °C 62.8 °F /  17.1 °C 30.1 in /  1019.9 hPa SW 8.1 mph /  13.0 km/h 8.1 mph /  13.0 km/h 57 % 0 in /  0.0 mm
17:41 79.3 °F /  26.3 °C 62.8 °F /  17.1 °C 30.1 in /  1019.9 hPa SW 6.4 mph /  10.3 km/h 6.4 mph /  10.3 km/h 57 % 0 in /  0.0 mm
17:46 78.8 °F /  26.0 °C 62.2 °F /  16.8 °C 30.1 in /  1019.9 hPa SW 4.7 mph /  7.6 km/h 4.7 mph /  7.6 km/h 57 % 0 in /  0.0 mm
17:51 78.8 °F /  26.0 °C 62.2 °F /  16.8 °C 30.1 in /  1019.9 hPa SW 5.4 mph /  8.7 km/h 5.4 mph /  8.7 km/h 57 % 0 in /  0.0 mm
17:56 78.4 °F /  25.8 °C 61.9 °F /  16.6 °C 30.1 in /  1019.9 hPa SW 6.9 mph /  11.1 km/h 6.9 mph /  11.1 km/h 57 % 0 in /  0.0 mm
18:01 78.4 °F /  25.8 °C 62.4 °F /  16.9 °C 30.1 in /  1019.9 hPa WSW 5.8 mph /  9.3 km/h 5.8 mph /  9.3 km/h 58 % 0 in /  0.0 mm
18:06 78.6 °F /  25.9 °C 62.6 °F /  17.0 °C 30.1 in /  1018.8 hPa WSW 8.1 mph /  13.0 km/h 8.1 mph /  13.0 km/h 58 % 0 in /  0.0 mm
18:11 78.1 °F /  25.6 °C 62.1 °F /  16.7 °C 30.1 in /  1018.8 hPa SW 6.9 mph /  11.1 km/h 6.9 mph /  11.1 km/h 58 % 0 in /  0.0 mm
18:16 77.5 °F /  25.3 °C 61.5 °F /  16.4 °C 30.1 in /  1018.8 hPa SW 8.1 mph /  13.0 km/h 8.1 mph /  13.0 km/h 58 % 0 in /  0.0 mm
18:21 77.2 °F /  25.1 °C 61.7 °F /  16.5 °C 30.1 in /  1018.8 hPa SW 4.6 mph /  7.4 km/h 4.6 mph /  7.4 km/h 59 % 0 in /  0.0 mm
18:26 76.8 °F /  24.9 °C 61.9 °F /  16.6 °C 30.1 in /  1018.8 hPa South 5.8 mph /  9.3 km/h 5.8 mph /  9.3 km/h 60 % 0 in /  0.0 mm
18:31 76.6 °F /  24.8 °C 62.2 °F /  16.8 °C 30.1 in /  1018.8 hPa SW 4.9 mph /  7.9 km/h 4.9 mph /  7.9 km/h 61 % 0 in /  0.0 mm
18:36 76.5 °F /  24.7 °C 62.1 °F /  16.7 °C 30.1 in /  1018.8 hPa WSW 5.8 mph /  9.3 km/h 5.8 mph /  9.3 km/h 61 % 0 in /  0.0 mm
18:41 75.7 °F /  24.3 °C 61.9 °F /  16.6 °C 30.1 in /  1018.8 hPa SSW 9.2 mph /  14.8 km/h 9.2 mph /  14.8 km/h 62 % 0 in /  0.0 mm
18:46 75.4 °F /  24.1 °C 61.9 °F /  16.6 °C 30.1 in /  1018.8 hPa SSW 5.8 mph /  9.3 km/h 5.8 mph /  9.3 km/h 63 % 0 in /  0.0 mm
18:51 75 °F /  23.9 °C 62.1 °F /  16.7 °C 30.1 in /  1019.9 hPa SSW 10.4 mph /  16.7 km/h 10.4 mph /  16.7 km/h 64 % 0 in /  0.0 mm
18:56 74.8 °F /  23.8 °C 61.9 °F /  16.6 °C 30.1 in /  1019.9 hPa SW 7.8 mph /  12.6 km/h 7.8 mph /  12.6 km/h 64 % 0 in /  0.0 mm
19:01 74.3 °F /  23.5 °C 61.9 °F /  16.6 °C 30.1 in /  1019.9 hPa SSW 8.1 mph /  13.0 km/h 8.1 mph /  13.0 km/h 65 % 0 in /  0.0 mm
19:06 74.1 °F /  23.4 °C 61.5 °F /  16.4 °C 30.1 in /  1018.8 hPa SW 6.2 mph /  10.0 km/h 6.2 mph /  10.0 km/h 65 % 0 in /  0.0 mm
19:11 73.9 °F /  23.3 °C 61.9 °F /  16.6 °C 30.1 in /  1018.8 hPa WSW 8.1 mph /  13.0 km/h 8.1 mph /  13.0 km/h 66 % 0 in /  0.0 mm
19:16 73.8 °F /  23.2 °C 61.7 °F /  16.5 °C 30.1 in /  1018.8 hPa SW 4.6 mph /  7.4 km/h 4.6 mph /  7.4 km/h 66 % 0 in /  0.0 mm
19:21 73.6 °F /  23.1 °C 61.5 °F /  16.4 °C 30.1 in /  1018.8 hPa SW 6.9 mph /  11.1 km/h 6.9 mph /  11.1 km/h 66 % 0 in /  0.0 mm
19:26 73.4 °F /  23.0 °C 61.3 °F /  16.3 °C 30.1 in /  1018.8 hPa SW 5.8 mph /  9.3 km/h 5.8 mph /  9.3 km/h 66 % 0 in /  0.0 mm
19:31 73 °F /  22.8 °C 61.3 °F /  16.3 °C 30.1 in /  1018.8 hPa South 4.6 mph /  7.4 km/h 4.6 mph /  7.4 km/h 67 % 0 in /  0.0 mm
19:37 72.9 °F /  22.7 °C 61.7 °F /  16.5 °C 30.1 in /  1018.8 hPa South 5.8 mph /  9.3 km/h 5.8 mph /  9.3 km/h 68 % 0 in /  0.0 mm
19:42 72.5 °F /  22.5 °C 61.7 °F /  16.5 °C 30.1 in /  1018.8 hPa SW 5.8 mph /  9.3 km/h 5.8 mph /  9.3 km/h 69 % 0 in /  0.0 mm
19:47 72.1 °F /  22.3 °C 61.3 °F /  16.3 °C 30.1 in /  1018.8 hPa West 5.8 mph /  9.3 km/h 5.8 mph /  9.3 km/h 69 % 0 in /  0.0 mm
19:50 67.8 °F /  19.9 °C 63.1 °F /  17.3 °C 30.1 in /  1019.9 hPa Calm   2 mph /  3.2 km/h 85 % 0 in /  0.0 mm
19:52 72 °F /  22.2 °C 61.5 °F /  16.4 °C 30.1 in /  1019.9 hPa SSW 5.8 mph /  9.3 km/h 5.8 mph /  9.3 km/h 70 % 0 in /  0.0 mm
19:57 71.8 °F /  22.1 °C 61.5 °F /  16.4 °C 30.1 in /  1019.9 hPa SSW 5.6 mph /  9.0 km/h 5.6 mph /  9.0 km/h 70 % 0 in /  0.0 mm
20:00 68 °F /  20.0 °C 63.3 °F /  17.4 °C 30.1 in /  1019.9 hPa WSW 1 mph /  1.6 km/h 2 mph /  3.2 km/h 85 % 0 in /  0.0 mm
20:02 71.6 °F /  22.0 °C 61.3 °F /  16.3 °C 30.1 in /  1019.9 hPa WSW 6.2 mph /  10.0 km/h 6.2 mph /  10.0 km/h 70 % 0 in /  0.0 mm
20:07 71.4 °F /  21.9 °C 61.9 °F /  16.6 °C 30.1 in /  1019.9 hPa SSW 5.8 mph /  9.3 km/h 5.8 mph /  9.3 km/h 72 % 0 in /  0.0 mm
20:10 68 °F /  20.0 °C 63.3 °F /  17.4 °C 30.1 in /  1019.9 hPa Calm     85 % 0 in /  0.0 mm
20:12 71.2 °F /  21.8 °C 61.7 °F /  16.5 °C 30.1 in /  1019.9 hPa SW 3.5 mph /  5.6 km/h 3.5 mph /  5.6 km/h 72 % 0 in /  0.0 mm
20:17 71.1 °F /  21.7 °C 61.5 °F /  16.4 °C 30.1 in /  1019.9 hPa SW 5.8 mph /  9.3 km/h 5.8 mph /  9.3 km/h 72 % 0 in /  0.0 mm
20:20 68 °F /  20.0 °C 63.3 °F /  17.4 °C 30.1 in /  1019.9 hPa Calm     85 % 0 in /  0.0 mm
20:22 70.9 °F /  21.6 °C 61.3 °F /  16.3 °C 30.1 in /  1019.9 hPa SW 4.6 mph /  7.4 km/h 4.6 mph /  7.4 km/h 72 % 0 in /  0.0 mm
20:27 70.7 °F /  21.5 °C 61.5 °F /  16.4 °C 30.1 in /  1019.9 hPa WSW 4.6 mph /  7.4 km/h 4.6 mph /  7.4 km/h 73 % 0 in /  0.0 mm
20:30 68 °F /  20.0 °C 63.3 °F /  17.4 °C 30.1 in /  1019.9 hPa Calm     85 % 0 in /  0.0 mm
20:32 70.5 °F /  21.4 °C 61.3 °F /  16.3 °C 30.1 in /  1019.9 hPa WSW 4.6 mph /  7.4 km/h 4.6 mph /  7.4 km/h 73 % 0 in /  0.0 mm
20:37 70.3 °F /  21.3 °C 61.3 °F /  16.3 °C 30.1 in /  1019.9 hPa WSW 3.5 mph /  5.6 km/h 3.5 mph /  5.6 km/h 73 % 0 in /  0.0 mm
20:40 68 °F /  20.0 °C 63.3 °F /  17.4 °C 30.1 in /  1019.9 hPa Calm   1 mph /  1.6 km/h 85 % 0 in /  0.0 mm
20:42 70.3 °F /  21.3 °C 61.7 °F /  16.5 °C 30.1 in /  1019.9 hPa SW 3.5 mph /  5.6 km/h 3.5 mph /  5.6 km/h 74 % 0 in /  0.0 mm
20:47 70.2 °F /  21.2 °C 61.5 °F /  16.4 °C 30.1 in /  1019.9 hPa SW 2.3 mph /  3.7 km/h 2.3 mph /  3.7 km/h 74 % 0 in /  0.0 mm
20:50 68 °F /  20.0 °C 63.3 °F /  17.4 °C 30.1 in /  1019.9 hPa West 1 mph /  1.6 km/h 1 mph /  1.6 km/h 85 % 0 in /  0.0 mm
20:52 70 °F /  21.1 °C 61.3 °F /  16.3 °C 30.1 in /  1019.9 hPa WSW 3.6 mph /  5.8 km/h 3.6 mph /  5.8 km/h 74 % 0 in /  0.0 mm
20:57 69.8 °F /  21.0 °C 61.2 °F /  16.2 °C 30.1 in /  1019.9 hPa WSW 3.5 mph /  5.6 km/h 3.5 mph /  5.6 km/h 74 % 0 in /  0.0 mm
21:00 68 °F /  20.0 °C 63.3 °F /  17.4 °C 30.1 in /  1019.9 hPa Calm     85 % 0 in /  0.0 mm
21:02 69.8 °F /  21.0 °C 61.2 °F /  16.2 °C 30.1 in /  1019.9 hPa WSW 3.5 mph /  5.6 km/h 3.5 mph /  5.6 km/h 74 % 0 in /  0.0 mm
21:07 69.6 °F /  20.9 °C 61 °F /  16.1 °C 30.2 in /  1020.9 hPa WSW 3.5 mph /  5.6 km/h 3.5 mph /  5.6 km/h 74 % 0 in /  0.0 mm
21:10 67.8 °F /  19.9 °C 63.1 °F /  17.3 °C 30.1 in /  1019.9 hPa Calm   2 mph /  3.2 km/h 85 % 0 in /  0.0 mm
21:12 69.6 °F /  20.9 °C 61 °F /  16.1 °C 30.2 in /  1020.9 hPa WSW 3.5 mph /  5.6 km/h 3.5 mph /  5.6 km/h 74 % 0 in /  0.0 mm
21:20 67.6 °F /  19.8 °C 63 °F /  17.2 °C 30.1 in /  1019.9 hPa West 1 mph /  1.6 km/h 2 mph /  3.2 km/h 85 % 0 in /  0.0 mm
21:22 69.4 °F /  20.8 °C 61.2 °F /  16.2 °C 30.2 in /  1020.9 hPa WSW 3.5 mph /  5.6 km/h 3.5 mph /  5.6 km/h 75 % 0 in /  0.0 mm
21:27 69.3 °F /  20.7 °C 61 °F /  16.1 °C 30.2 in /  1020.9 hPa WSW 2.3 mph /  3.7 km/h 2.3 mph /  3.7 km/h 75 % 0 in /  0.0 mm
21:30 67.6 °F /  19.8 °C 63 °F /  17.2 °C 30.1 in /  1019.9 hPa Calm   2 mph /  3.2 km/h 85 % 0 in /  0.0 mm
21:32 69.1 °F /  20.6 °C 60.8 °F /  16.0 °C 30.2 in /  1020.9 hPa SW 2.4 mph /  3.9 km/h 2.4 mph /  3.9 km/h 75 % 0 in /  0.0 mm
21:37 69.1 °F /  20.6 °C 60.8 °F /  16.0 °C 30.1 in /  1018.8 hPa SW 2.3 mph /  3.7 km/h 2.3 mph /  3.7 km/h 75 % 0 in /  0.0 mm
21:40 67.5 °F /  19.7 °C 62.8 °F /  17.1 °C 30.1 in /  1018.8 hPa WSW 1 mph /  1.6 km/h 2 mph /  3.2 km/h 85 % 0 in /  0.0 mm
21:42 68.9 °F /  20.5 °C 60.6 °F /  15.9 °C 30.1 in /  1018.8 hPa WSW 2.3 mph /  3.7 km/h 2.3 mph /  3.7 km/h 75 % 0 in /  0.0 mm
21:47 68.7 °F /  20.4 °C 60.8 °F /  16.0 °C 30.1 in /  1018.8 hPa SW 2.4 mph /  3.9 km/h 2.4 mph /  3.9 km/h 76 % 0 in /  0.0 mm
21:50 67.1 °F /  19.5 °C 62.4 °F /  16.9 °C 30.1 in /  1018.8 hPa Calm   2 mph /  3.2 km/h 85 % 0 in /  0.0 mm
21:52 68.7 °F /  20.4 °C 60.8 °F /  16.0 °C 30.1 in /  1019.9 hPa WSW 2.3 mph /  3.7 km/h 2.3 mph /  3.7 km/h 76 % 0 in /  0.0 mm
21:57 68.7 °F /  20.4 °C 60.8 °F /  16.0 °C 30.1 in /  1019.9 hPa WSW 2.4 mph /  3.9 km/h 2.4 mph /  3.9 km/h 76 % 0 in /  0.0 mm
22:00 66.7 °F /  19.3 °C 62.1 °F /  16.7 °C 30.1 in /  1018.8 hPa Calm   1 mph /  1.6 km/h 85 % 0 in /  0.0 mm
22:02 68.7 °F /  20.4 °C 61.2 °F /  16.2 °C 30.1 in /  1019.9 hPa WSW 2.3 mph /  3.7 km/h 2.3 mph /  3.7 km/h 77 % 0 in /  0.0 mm
22:07 68.7 °F /  20.4 °C 61.5 °F /  16.4 °C 30.1 in /  1019.9 hPa WSW 2.3 mph /  3.7 km/h   78 % 0 in /  0.0 mm
22:10 66 °F /  18.9 °C 61.3 °F /  16.3 °C 30.1 in /  1018.8 hPa North 2 mph /  3.2 km/h 3 mph /  4.8 km/h 85 % 0 in /  0.0 mm
22:12 68.5 °F /  20.3 °C 61.3 °F /  16.3 °C 30.1 in /  1019.9 hPa WSW 1.2 mph /  1.9 km/h   78 % 0 in /  0.0 mm
22:17 68.4 °F /  20.2 °C 61.2 °F /  16.2 °C 30.1 in /  1019.9 hPa Calm     78 % 0 in /  0.0 mm
22:20 65.7 °F /  18.7 °C 61 °F /  16.1 °C 30.1 in /  1018.8 hPa Calm   2 mph /  3.2 km/h 85 % 0 in /  0.0 mm
22:22 68.4 °F /  20.2 °C 61.2 °F /  16.2 °C 30.1 in /  1019.9 hPa West 1.2 mph /  1.9 km/h 1.2 mph /  1.9 km/h 78 % 0 in /  0.0 mm
22:27 68.4 °F /  20.2 °C 61.2 °F /  16.2 °C 30.1 in /  1019.9 hPa NW 2.3 mph /  3.7 km/h 2.3 mph /  3.7 km/h 78 % 0 in /  0.0 mm
22:30 65.5 °F /  18.6 °C 61.2 °F /  16.2 °C 30.1 in /  1018.8 hPa Calm   2 mph /  3.2 km/h 86 % 0 in /  0.0 mm
22:32 68.2 °F /  20.1 °C 61.3 °F /  16.3 °C 30.1 in /  1019.9 hPa ENE 1.6 mph /  2.6 km/h 1.6 mph /  2.6 km/h 79 % 0 in /  0.0 mm
22:38 67.8 °F /  19.9 °C 61.3 °F /  16.3 °C 30.1 in /  1019.9 hPa Calm     80 % 0 in /  0.0 mm
22:40 65.3 °F /  18.5 °C 61 °F /  16.1 °C 30.1 in /  1018.8 hPa Calm   1 mph /  1.6 km/h 86 % 0 in /  0.0 mm
22:43 67.8 °F /  19.9 °C 61.3 °F /  16.3 °C 30.1 in /  1019.9 hPa Calm     80 % 0 in /  0.0 mm
22:48 67.5 °F /  19.7 °C 61.2 °F /  16.2 °C 30.1 in /  1019.9 hPa Calm     80 % 0 in /  0.0 mm
22:50 65.1 °F /  18.4 °C 60.8 °F /  16.0 °C 30.1 in /  1018.8 hPa Calm   1 mph /  1.6 km/h 86 % 0 in /  0.0 mm
22:53 67.5 °F /  19.7 °C 61.2 °F /  16.2 °C 30.1 in /  1019.9 hPa Calm     80 % 0 in /  0.0 mm
22:58 67.3 °F /  19.6 °C 61 °F /  16.1 °C 30.1 in /  1019.9 hPa Calm     80 % 0 in /  0.0 mm
23:00 64.9 °F /  18.3 °C 61 °F /  16.1 °C 30.1 in /  1017.8 hPa Calm     87 % 0 in /  0.0 mm
23:03 67.3 °F /  19.6 °C 61 °F /  16.1 °C 30.1 in /  1019.9 hPa Calm     80 % 0 in /  0.0 mm
23:08 67.1 °F /  19.5 °C 61.2 °F /  16.2 °C 30.1 in /  1019.9 hPa Calm     81 % 0 in /  0.0 mm
23:10 64.8 °F /  18.2 °C 60.8 °F /  16.0 °C 30.1 in /  1017.8 hPa Calm     87 % 0 in /  0.0 mm
23:13 67.1 °F /  19.5 °C 61.2 °F /  16.2 °C 30.1 in /  1019.9 hPa Calm     81 % 0 in /  0.0 mm
23:18 66.9 °F /  19.4 °C 61 °F /  16.1 °C 30.1 in /  1019.9 hPa Calm     81 % 0 in /  0.0 mm
23:20 64.6 °F /  18.1 °C 60.3 °F /  15.7 °C 30.1 in /  1017.8 hPa West 1 mph /  1.6 km/h 2 mph /  3.2 km/h 86 % 0 in /  0.0 mm
23:23 66.7 °F /  19.3 °C 60.6 °F /  15.9 °C 30.1 in /  1019.9 hPa SW 1.6 mph /  2.6 km/h 1.6 mph /  2.6 km/h 81 % 0 in /  0.0 mm
23:28 66.6 °F /  19.2 °C 60.4 °F /  15.8 °C 30.1 in /  1019.9 hPa SW 1.6 mph /  2.6 km/h   81 % 0 in /  0.0 mm
23:30 64.8 °F /  18.2 °C 60.8 °F /  16.0 °C 30 in /  1016.8 hPa WSW 1 mph /  1.6 km/h 2 mph /  3.2 km/h 87 % 0 in /  0.0 mm
23:33 66.4 °F /  19.1 °C 60.4 °F /  15.8 °C 30.1 in /  1019.9 hPa SW 2.3 mph /  3.7 km/h 2.3 mph /  3.7 km/h 81 % 0 in /  0.0 mm
23:38 66.4 °F /  19.1 °C 60.6 °F /  15.9 °C 30.1 in /  1019.9 hPa SW 1.2 mph /  1.9 km/h 1.2 mph /  1.9 km/h 82 % 0 in /  0.0 mm
23:40 64.8 °F /  18.2 °C 60.4 °F /  15.8 °C 30.1 in /  1017.8 hPa West 1 mph /  1.6 km/h 3 mph /  4.8 km/h 86 % 0 in /  0.0 mm
23:43 66.4 °F /  19.1 °C 60.6 °F /  15.9 °C 30.1 in /  1019.9 hPa WSW 1.2 mph /  1.9 km/h 1.2 mph /  1.9 km/h 82 % 0 in /  0.0 mm
23:48 66.4 °F /  19.1 °C 60.6 °F /  15.9 °C 30.1 in /  1019.9 hPa WSW 1.6 mph /  2.6 km/h 1.6 mph /  2.6 km/h 82 % 0 in /  0.0 mm
23:50 64.6 °F /  18.1 °C 60.6 °F /  15.9 °C 30.1 in /  1017.8 hPa Calm   1 mph /  1.6 km/h 87 % 0 in /  0.0 mm
23:53 66.4 °F /  19.1 °C 61.2 °F /  16.2 °C 30.1 in /  1019.9 hPa WSW 1.2 mph /  1.9 km/h   83 % 0 in /  0.0 mm
23:58 66.4 °F /  19.1 °C 61.2 °F /  16.2 °C 30.1 in /  1019.9 hPa Calm     83 % 0 in /  0.0 mm
Meteo Sesrovires
Elogis d' Weather Underground - 4.25 mb

Guio original per  Jim McMurry - jmcmurry@mwt.net Adaptat per a la plantilla per  Wim van der Kuil - Leuven-Template.eu

Trobareu la nostra informacio del temps tambe a:

Weather Underground

AWEKAS